Terminal Aerodrome Forecast
Issued by NWS

Home | Current Version | Previous Version | Text Only | Print | Product List | Glossary Off
Versions: 1 2 3 4 5 6 7 8 9 10 11 12 13 14 15

000
FTUS43 KIWX 022145 AAA
TAFSBN
TAF AMD
KSBN 022145Z 0222/0318 22018G28KT P6SM SCT050 BKN150
     FM030200 21015G25KT P6SM SCT050
      TEMPO 0304/0307 5SM TSRA BKN030CB
     FM030700 26008KT P6SM SCT040 BKN080
     FM031400 31010KT P6SM SCT030
     FM031700 30014G22KT P6SM SCT040=

USA.gov is the U.S. government's official web portal to all federal, state and local government web resources and services.